Time;durP1;ratioP1;P1;durP2;ratioP2;P2;SDS_P1;SDS_P2;PMS_P1;PMS_P2;Temp;Humidity;BMP_temperature;BMP_pressure;BME280_temperature;BME280_humidity;BME280_pressure;Samples;Min_cycle;Max_cycle;Signal;HPM_P1;HPM_P2
2022/03/19 00:01:17;;;;;;;3.63;2.40;;;;;;;;;;4984962;28;20277;-51
2022/03/19 00:03:42;;;;;;;4.80;2.60;;;;;;;;;;4985258;28;20028;-51
2022/03/19 00:06:07;;;;;;;4.65;2.45;;;;;;;;;;4974650;28;20142;-50
2022/03/19 00:08:32;;;;;;;3.53;2.40;;;;;;;;;;4978926;28;20125;-51
2022/03/19 00:10:59;;;;;;;5.03;2.73;;;;;;;;;;4984721;28;20277;-50
2022/03/19 00:13:24;;;;;;;4.57;2.53;;;;;;;;;;4984762;28;20258;-51
2022/03/19 00:15:50;;;;;;;4.53;2.87;;;;;;;;;;4984795;28;20030;-50
2022/03/19 00:18:16;;;;;;;5.00;2.90;;;;;;;;;;4984606;28;20345;-50
2022/03/19 00:20:42;;;;;;;4.43;2.55;;;;;;;;;;4984741;28;20037;-50
2022/03/19 00:23:07;;;;;;;4.28;2.55;;;;;;;;;;4984407;28;20022;-51
2022/03/19 00:25:32;;;;;;;4.13;2.38;;;;;;;;;;4979088;28;20018;-50
2022/03/19 00:27:57;;;;;;;4.63;2.67;;;;;;;;;;4981778;28;20080;-50
2022/03/19 00:30:23;;;;;;;4.67;3.00;;;;;;;;;;4984514;28;21256;-51
2022/03/19 00:32:48;;;;;;;5.37;3.20;;;;;;;;;;4984619;28;20519;-51
2022/03/19 00:35:13;;;;;;;5.27;2.80;;;;;;;;;;4983795;28;20528;-51
2022/03/19 00:37:43;;;;;;;4.63;2.83;;;;;;;;;;4983417;28;20788;-50
2022/03/19 00:40:09;;;;;;;4.82;2.80;;;;;;;;;;4985162;28;20265;-50
2022/03/19 00:42:34;;;;;;;5.78;2.85;;;;;;;;;;4984735;28;20045;-51
2022/03/19 00:44:59;;;;;;;4.83;3.00;;;;;;;;;;4983087;28;20041;-51
2022/03/19 00:47:24;;;;;;;5.78;3.10;;;;;;;;;;4973935;28;20030;-50
2022/03/19 00:49:49;;;;;;;5.90;3.17;;;;;;;;;;5004229;28;20613;-52
2022/03/19 00:52:15;;;;;;;4.80;3.10;;;;;;;;;;5003277;28;20481;-50
2022/03/19 00:54:40;;;;;;;5.17;3.43;;;;;;;;;;4988306;28;20541;-50
2022/03/19 00:57:05;;;;;;;4.67;2.83;;;;;;;;;;4982139;28;20277;-50
2022/03/19 00:59:30;;;;;;;5.63;2.97;;;;;;;;;;4975083;28;20278;-50
2022/03/19 01:01:56;;;;;;;4.40;2.87;;;;;;;;;;4977260;28;20034;-50
2022/03/19 01:04:21;;;;;;;4.85;3.25;;;;;;;;;;4977939;28;20280;-50
2022/03/19 01:06:46;;;;;;;4.72;3.00;;;;;;;;;;4983751;28;20032;-50
2022/03/19 01:09:12;;;;;;;4.93;3.30;;;;;;;;;;4983482;28;20073;-50
2022/03/19 01:11:37;;;;;;;4.63;2.93;;;;;;;;;;4983099;28;20050;-50
2022/03/19 01:14:02;;;;;;;4.63;3.20;;;;;;;;;;4983407;28;20417;-50
2022/03/19 01:16:27;;;;;;;5.10;3.13;;;;;;;;;;4983394;28;20414;-50
2022/03/19 01:18:53;;;;;;;5.33;3.30;;;;;;;;;;4983323;28;20401;-50
2022/03/19 01:21:18;;;;;;;5.43;3.30;;;;;;;;;;4983203;28;20348;-50
2022/03/19 01:23:43;;;;;;;4.35;3.22;;;;;;;;;;4983364;28;20265;-50
2022/03/19 01:26:08;;;;;;;4.90;3.13;;;;;;;;;;4975715;28;20015;-50
2022/03/19 01:28:34;;;;;;;5.33;3.27;;;;;;;;;;4996976;28;20029;-50
2022/03/19 01:30:59;;;;;;;5.63;3.17;;;;;;;;;;5002695;28;20033;-50
2022/03/19 01:33:24;;;;;;;5.13;3.20;;;;;;;;;;4998668;28;20283;-50
2022/03/19 01:35:49;;;;;;;4.97;3.37;;;;;;;;;;4983478;28;21035;-50
2022/03/19 01:38:15;;;;;;;5.80;3.50;;;;;;;;;;4983619;28;20657;-50
2022/03/19 01:40:40;;;;;;;5.78;3.72;;;;;;;;;;4983399;28;20265;-51
2022/03/19 01:43:05;;;;;;;6.50;3.70;;;;;;;;;;4983156;28;20418;-50
2022/03/19 01:45:30;;;;;;;5.70;3.70;;;;;;;;;;4978385;28;20387;-50
2022/03/19 01:47:56;;;;;;;5.47;3.22;;;;;;;;;;4980521;28;20029;-50
2022/03/19 01:50:22;;;;;;;6.18;3.70;;;;;;;;;;4993459;28;20033;-53
2022/03/19 01:52:48;;;;;;;5.82;3.58;;;;;;;;;;4999240;28;20545;-51
2022/03/19 01:55:13;;;;;;;6.05;3.80;;;;;;;;;;4983414;28;20121;-51
2022/03/19 01:57:42;;;;;;;5.45;3.47;;;;;;;;;;4983334;28;20032;-52
2022/03/19 02:00:08;;;;;;;6.38;3.50;;;;;;;;;;4981706;28;20026;-51
2022/03/19 02:02:33;;;;;;;6.45;3.70;;;;;;;;;;4982115;28;20042;-51
2022/03/19 02:05:01;;;;;;;5.85;3.95;;;;;;;;;;4980877;28;20093;-51
2022/03/19 02:07:27;;;;;;;6.43;3.55;;;;;;;;;;4972592;28;20025;-51
2022/03/19 02:09:52;;;;;;;6.00;3.83;;;;;;;;;;5002769;28;20042;-51
2022/03/19 02:12:17;;;;;;;6.77;3.70;;;;;;;;;;5002817;28;20281;-50
2022/03/19 02:14:44;;;;;;;6.13;3.60;;;;;;;;;;4986917;28;20376;-51
2022/03/19 02:17:09;;;;;;;5.45;3.22;;;;;;;;;;4982656;28;20262;-51
2022/03/19 02:19:36;;;;;;;5.63;3.67;;;;;;;;;;4982970;28;20026;-51
2022/03/19 02:22:01;;;;;;;7.50;4.25;;;;;;;;;;4981453;28;20273;-51
2022/03/19 02:27:10;;;;;;;6.65;4.30;;;;;;;;;;4977470;28;20580;-51
2022/03/19 02:29:35;;;;;;;6.20;3.70;;;;;;;;;;5002641;28;20026;-51
2022/03/19 02:32:02;;;;;;;5.83;3.97;;;;;;;;;;5002322;28;20096;-51
2022/03/19 02:34:28;;;;;;;7.53;4.25;;;;;;;;;;4989405;28;20281;-51
2022/03/19 02:36:53;;;;;;;6.73;4.53;;;;;;;;;;4982742;28;20425;-50
2022/03/19 02:39:19;;;;;;;6.63;4.43;;;;;;;;;;4981752;28;20339;-51
2022/03/19 02:41:45;;;;;;;6.53;4.55;;;;;;;;;;4982717;28;20261;-51
2022/03/19 02:44:10;;;;;;;6.65;3.78;;;;;;;;;;4982769;28;20015;-50
2022/03/19 02:46:43;;;;;;;7.25;4.10;;;;;;;;;;4969261;28;20031;-51
2022/03/19 02:49:08;;;;;;;6.10;3.97;;;;;;;;;;4981041;28;20087;-51
2022/03/19 02:51:34;;;;;;;7.00;4.47;;;;;;;;;;4981514;28;20498;-50
2022/03/19 02:53:59;;;;;;;6.63;4.50;;;;;;;;;;4982395;28;20057;-51
2022/03/19 02:56:24;;;;;;;6.43;4.13;;;;;;;;;;4980204;28;20038;-50
2022/03/19 02:58:50;;;;;;;6.83;4.80;;;;;;;;;;4973243;28;20482;-51
2022/03/19 03:01:15;;;;;;;6.83;4.30;;;;;;;;;;4976784;28;20796;-50
2022/03/19 03:03:41;;;;;;;6.87;4.07;;;;;;;;;;4982532;28;20269;-50
2022/03/19 03:06:06;;;;;;;6.60;4.35;;;;;;;;;;4976695;28;20434;-50
2022/03/19 03:08:31;;;;;;;7.43;4.87;;;;;;;;;;4992614;28;20132;-50
2022/03/19 03:10:56;;;;;;;6.33;4.00;;;;;;;;;;5005674;28;20261;-50
2022/03/19 03:13:21;;;;;;;6.40;3.78;;;;;;;;;;5002356;28;20030;-51
2022/03/19 03:15:47;;;;;;;7.20;4.37;;;;;;;;;;4986187;28;20180;-50
2022/03/19 03:18:12;;;;;;;6.60;4.47;;;;;;;;;;4985855;28;20101;-50
2022/03/19 03:20:37;;;;;;;7.17;4.40;;;;;;;;;;4985986;28;20321;-52
2022/03/19 03:23:03;;;;;;;7.28;4.60;;;;;;;;;;4968357;28;20121;-50
2022/03/19 03:25:28;;;;;;;7.53;4.35;;;;;;;;;;4981288;28;20023;-50
2022/03/19 03:27:53;;;;;;;7.17;4.40;;;;;;;;;;4990277;28;20029;-50
2022/03/19 03:30:20;;;;;;;6.80;4.60;;;;;;;;;;5005007;28;20300;-50
2022/03/19 03:32:46;;;;;;;8.43;5.13;;;;;;;;;;5005429;28;20261;-50
2022/03/19 03:35:11;;;;;;;7.43;4.60;;;;;;;;;;4987161;28;20038;-50
2022/03/19 03:37:36;;;;;;;6.93;4.40;;;;;;;;;;4985639;28;20401;-50
2022/03/19 03:40:01;;;;;;;7.87;4.47;;;;;;;;;;4985720;28;20572;-51
2022/03/19 03:42:27;;;;;;;6.47;4.57;;;;;;;;;;4985365;28;20117;-49
2022/03/19 03:44:57;;;;;;;7.80;4.40;;;;;;;;;;4985840;28;20049;-50
2022/03/19 03:47:23;;;;;;;6.97;4.40;;;;;;;;;;4969697;28;20030;-50
2022/03/19 03:49:48;;;;;;;7.03;4.93;;;;;;;;;;4985658;28;20034;-50
2022/03/19 03:52:13;;;;;;;7.03;4.43;;;;;;;;;;4985458;28;20303;-50
2022/03/19 03:54:38;;;;;;;7.73;4.73;;;;;;;;;;4984831;28;20049;-50
2022/03/19 03:57:04;;;;;;;7.15;4.70;;;;;;;;;;4985069;28;20018;-50
2022/03/19 03:59:30;;;;;;;6.07;4.03;;;;;;;;;;4985400;28;20026;-50
2022/03/19 04:01:55;;;;;;;8.93;4.80;;;;;;;;;;4985266;28;20328;-50
2022/03/19 04:04:20;;;;;;;6.93;4.80;;;;;;;;;;4985425;28;20525;-50
2022/03/19 04:06:45;;;;;;;7.27;4.43;;;;;;;;;;4970586;28;20109;-50
2022/03/19 04:09:11;;;;;;;7.47;4.93;;;;;;;;;;4984128;28;20793;-50
2022/03/19 04:11:36;;;;;;;7.87;4.57;;;;;;;;;;4971840;28;20650;-50
2022/03/19 04:14:01;;;;;;;7.27;4.80;;;;;;;;;;4984922;28;20716;-50
2022/03/19 04:16:26;;;;;;;7.53;4.03;;;;;;;;;;4974507;28;20301;-50
2022/03/19 04:18:52;;;;;;;7.90;4.63;;;;;;;;;;4966760;28;20274;-50
2022/03/19 04:21:17;;;;;;;7.68;4.75;;;;;;;;;;4966942;28;20705;-50
2022/03/19 04:23:42;;;;;;;7.18;4.47;;;;;;;;;;4968854;28;20026;-49
2022/03/19 04:26:08;;;;;;;7.45;4.57;;;;;;;;;;4964701;28;20528;-50
2022/03/19 04:28:33;;;;;;;7.13;4.63;;;;;;;;;;4966139;28;20093;-49
2022/03/19 04:30:58;;;;;;;6.50;4.43;;;;;;;;;;4966843;28;20030;-49
2022/03/19 04:33:23;;;;;;;7.25;4.65;;;;;;;;;;4978288;28;20076;-51
2022/03/19 04:38:32;;;;;;;7.47;4.60;;;;;;;;;;4978754;28;20041;-50
2022/03/19 04:40:59;;;;;;;5.95;4.10;;;;;;;;;;4989206;28;20030;-50
2022/03/19 04:43:25;;;;;;;6.90;4.72;;;;;;;;;;4991385;28;20030;-50
2022/03/19 04:45:50;;;;;;;6.63;4.23;;;;;;;;;;4981960;28;20493;-50
2022/03/19 04:48:15;;;;;;;7.87;4.43;;;;;;;;;;4979706;28;20277;-50
2022/03/19 04:50:41;;;;;;;8.95;4.65;;;;;;;;;;4986293;28;20285;-50
2022/03/19 04:53:06;;;;;;;9.10;5.13;;;;;;;;;;4986376;28;20033;-51
2022/03/19 04:55:32;;;;;;;7.80;4.68;;;;;;;;;;4986895;28;20050;-50
2022/03/19 04:57:58;;;;;;;6.55;4.43;;;;;;;;;;4979088;28;20460;-50
2022/03/19 05:00:23;;;;;;;8.83;4.80;;;;;;;;;;4976310;28;20042;-50
2022/03/19 05:02:48;;;;;;;7.70;5.33;;;;;;;;;;4982125;28;20548;-50
2022/03/19 05:05:14;;;;;;;7.30;4.38;;;;;;;;;;4982059;28;20431;-49
2022/03/19 05:07:39;;;;;;;7.77;5.10;;;;;;;;;;4984266;28;20018;-50
2022/03/19 05:12:49;;;;;;;7.35;4.85;;;;;;;;;;4982712;28;20033;-52
2022/03/19 05:15:15;;;;;;;6.60;4.35;;;;;;;;;;4980767;28;20030;-50
2022/03/19 05:17:40;;;;;;;7.45;4.45;;;;;;;;;;4982700;28;20022;-50
2022/03/19 05:20:06;;;;;;;7.47;4.90;;;;;;;;;;4982504;28;20041;-50
2022/03/19 05:22:31;;;;;;;8.40;4.97;;;;;;;;;;4982390;28;20478;-50
2022/03/19 05:24:56;;;;;;;6.63;4.85;;;;;;;;;;4982457;28;20014;-49
2022/03/19 05:27:22;;;;;;;6.72;4.50;;;;;;;;;;4981950;28;20029;-50
2022/03/19 05:29:48;;;;;;;7.00;4.45;;;;;;;;;;4982738;28;20120;-50
2022/03/19 05:32:13;;;;;;;7.10;4.75;;;;;;;;;;4983213;28;20802;-50
2022/03/19 05:34:38;;;;;;;8.07;4.28;;;;;;;;;;4982914;28;20022;-50
2022/03/19 05:37:04;;;;;;;8.02;5.10;;;;;;;;;;4982700;28;20506;-50
2022/03/19 05:39:29;;;;;;;7.07;4.75;;;;;;;;;;4983293;28;20018;-50
2022/03/19 05:41:54;;;;;;;7.75;4.72;;;;;;;;;;4981959;28;20454;-51
2022/03/19 05:44:20;;;;;;;8.30;4.72;;;;;;;;;;4983098;28;20029;-50
2022/03/19 05:46:45;;;;;;;8.13;4.90;;;;;;;;;;4968719;28;20026;-50
2022/03/19 05:49:11;;;;;;;6.55;4.38;;;;;;;;;;4966479;28;20682;-50
2022/03/19 05:51:36;;;;;;;7.65;4.85;;;;;;;;;;4971127;28;20085;-50
2022/03/19 05:54:02;;;;;;;7.13;4.50;;;;;;;;;;4965396;28;20053;-50
2022/03/19 05:56:28;;;;;;;8.00;4.70;;;;;;;;;;4965451;28;20353;-50
2022/03/19 05:58:54;;;;;;;6.65;4.80;;;;;;;;;;4965100;28;20031;-51
2022/03/19 06:01:25;;;;;;;8.18;5.07;;;;;;;;;;4969001;28;20097;-50
2022/03/19 06:03:51;;;;;;;7.47;5.05;;;;;;;;;;4964780;28;20026;-51
2022/03/19 06:06:16;;;;;;;6.88;4.80;;;;;;;;;;4965177;28;20023;-51
2022/03/19 06:08:41;;;;;;;6.70;4.80;;;;;;;;;;4960676;28;20030;-52
2022/03/19 06:11:07;;;;;;;6.55;4.70;;;;;;;;;;4967769;28;20272;-51
2022/03/19 06:13:32;;;;;;;7.53;4.97;;;;;;;;;;4963024;28;20303;-51
2022/03/19 06:15:57;;;;;;;8.50;4.83;;;;;;;;;;4961513;28;20270;-50
2022/03/19 06:18:22;;;;;;;7.27;5.20;;;;;;;;;;4963062;28;20330;-52
2022/03/19 06:20:48;;;;;;;7.25;4.65;;;;;;;;;;4977436;28;20336;-51
2022/03/19 06:23:13;;;;;;;8.50;4.33;;;;;;;;;;4982265;28;20490;-50
2022/03/19 06:25:38;;;;;;;8.07;5.83;;;;;;;;;;4977535;28;20517;-50
2022/03/19 06:28:03;;;;;;;7.30;4.63;;;;;;;;;;4980877;28;20501;-50
2022/03/19 06:30:31;;;;;;;7.22;4.22;;;;;;;;;;4982262;28;20781;-52
2022/03/19 06:32:58;;;;;;;7.28;4.28;;;;;;;;;;4982466;28;20057;-52
2022/03/19 06:38:08;;;;;;;6.70;4.45;;;;;;;;;;4986563;28;20104;-52
2022/03/19 06:40:34;;;;;;;6.63;4.60;;;;;;;;;;4986461;28;20478;-51
2022/03/19 06:43:00;;;;;;;6.45;4.35;;;;;;;;;;4986125;28;20282;-50
2022/03/19 06:45:26;;;;;;;6.33;4.40;;;;;;;;;;4985567;28;20049;-50
2022/03/19 06:47:52;;;;;;;7.10;4.80;;;;;;;;;;4986349;28;20372;-51
2022/03/19 06:50:17;;;;;;;6.77;4.80;;;;;;;;;;4986412;28;20121;-51
2022/03/19 06:52:42;;;;;;;7.97;5.05;;;;;;;;;;4986352;28;20054;-51
2022/03/19 06:55:08;;;;;;;5.87;4.60;;;;;;;;;;4986010;28;20137;-50
2022/03/19 06:57:33;;;;;;;7.15;4.90;;;;;;;;;;4987351;28;20308;-51
2022/03/19 06:59:58;;;;;;;7.32;4.65;;;;;;;;;;4975783;28;20149;-49
2022/03/19 07:02:24;;;;;;;9.98;5.00;;;;;;;;;;4984128;28;20549;-50
2022/03/19 07:04:49;;;;;;;6.65;4.90;;;;;;;;;;4984347;28;20188;-52
2022/03/19 07:07:14;;;;;;;7.55;4.57;;;;;;;;;;4983391;28;20034;-51
2022/03/19 07:09:39;;;;;;;6.90;4.93;;;;;;;;;;4986004;28;20089;-49
2022/03/19 07:12:06;;;;;;;8.47;4.57;;;;;;;;;;4985858;28;20801;-51
2022/03/19 07:14:31;;;;;;;6.35;4.65;;;;;;;;;;4985209;28;20301;-50
2022/03/19 07:16:57;;;;;;;7.73;4.93;;;;;;;;;;4985463;28;20056;-50
2022/03/19 07:19:22;;;;;;;6.73;4.77;;;;;;;;;;4982574;28;20300;-48
2022/03/19 07:21:47;;;;;;;6.60;4.30;;;;;;;;;;4976022;28;20847;-51
2022/03/19 07:24:12;;;;;;;5.93;4.30;;;;;;;;;;4981931;28;21365;-50
2022/03/19 07:26:38;;;;;;;7.28;4.97;;;;;;;;;;4983616;28;20563;-51
2022/03/19 07:29:03;;;;;;;7.03;4.97;;;;;;;;;;4975045;28;20038;-50
2022/03/19 07:31:28;;;;;;;7.13;4.90;;;;;;;;;;4985081;28;20085;-50
2022/03/19 07:33:53;;;;;;;6.97;4.53;;;;;;;;;;4985547;28;20038;-50
2022/03/19 07:36:21;;;;;;;7.27;4.77;;;;;;;;;;4985916;28;20049;-50
2022/03/19 07:38:47;;;;;;;6.80;4.53;;;;;;;;;;4985191;28;20265;-51
2022/03/19 07:43:56;;;;;;;6.72;4.80;;;;;;;;;;4984191;28;20508;-50
2022/03/19 07:46:22;;;;;;;7.22;4.80;;;;;;;;;;4983346;28;20058;-51
2022/03/19 07:48:47;;;;;;;6.80;5.07;;;;;;;;;;4983831;28;20042;-50
2022/03/19 07:51:13;;;;;;;7.53;4.90;;;;;;;;;;4983016;28;20125;-51
2022/03/19 07:53:38;;;;;;;7.18;4.90;;;;;;;;;;4984323;28;20069;-52
2022/03/19 07:56:04;;;;;;;7.53;4.83;;;;;;;;;;4984507;28;20031;-50
2022/03/19 07:58:29;;;;;;;6.00;5.15;;;;;;;;;;4984239;28;20015;-50
2022/03/19 08:00:54;;;;;;;6.60;4.67;;;;;;;;;;4969190;28;20014;-50
2022/03/19 08:03:19;;;;;;;5.90;4.50;;;;;;;;;;4967649;28;20026;-50
2022/03/19 08:05:45;;;;;;;6.25;4.60;;;;;;;;;;4982285;28;20320;-51
2022/03/19 08:08:12;;;;;;;6.60;4.60;;;;;;;;;;4984126;28;20030;-50
2022/03/19 08:10:38;;;;;;;6.47;4.43;;;;;;;;;;4984016;28;20038;-50
2022/03/19 08:13:04;;;;;;;7.33;4.87;;;;;;;;;;4966293;28;20038;-50
2022/03/19 08:15:29;;;;;;;6.53;4.50;;;;;;;;;;4964904;28;20277;-50
2022/03/19 08:17:54;;;;;;;6.95;5.22;;;;;;;;;;4967165;28;20030;-50
2022/03/19 08:20:20;;;;;;;7.00;4.50;;;;;;;;;;4965630;28;20023;-53
2022/03/19 08:22:45;;;;;;;7.18;5.03;;;;;;;;;;4972970;28;20033;-52
2022/03/19 08:25:10;;;;;;;5.47;4.43;;;;;;;;;;4983600;28;20117;-49
2022/03/19 08:27:35;;;;;;;8.05;4.55;;;;;;;;;;4978389;28;20022;-55
2022/03/19 08:30:03;;;;;;;6.40;4.93;;;;;;;;;;4984579;28;20109;-51
2022/03/19 08:32:29;;;;;;;6.63;4.68;;;;;;;;;;4984743;28;20121;-51
2022/03/19 08:34:54;;;;;;;8.17;4.30;;;;;;;;;;4984285;28;20169;-51
2022/03/19 08:37:19;;;;;;;6.90;4.55;;;;;;;;;;4984356;28;20269;-51
2022/03/19 08:42:28;;;;;;;10.70;6.72;;;;;;;;;;5004272;28;20115;-50
2022/03/19 08:44:56;;;;;;;14.10;6.03;;;;;;;;;;4985208;28;20769;-50
2022/03/19 08:47:22;;;;;;;8.38;5.35;;;;;;;;;;4981640;28;20418;-50
2022/03/19 08:49:47;;;;;;;8.25;4.97;;;;;;;;;;4982746;28;20038;-49
2022/03/19 08:52:12;;;;;;;8.57;4.90;;;;;;;;;;4983473;28;20037;-53
2022/03/19 08:54:37;;;;;;;8.77;5.10;;;;;;;;;;4983122;28;20308;-50
2022/03/19 08:57:03;;;;;;;7.07;4.90;;;;;;;;;;4976087;28;20030;-50
2022/03/19 08:59:28;;;;;;;7.10;4.80;;;;;;;;;;4974879;28;20276;-50
2022/03/19 09:01:53;;;;;;;8.02;4.43;;;;;;;;;;4970090;28;20029;-50
2022/03/19 09:04:19;;;;;;;6.68;4.80;;;;;;;;;;4976740;28;20584;-50
2022/03/19 09:06:44;;;;;;;7.45;4.97;;;;;;;;;;4970507;28;20018;-50
2022/03/19 09:09:11;;;;;;;8.93;5.13;;;;;;;;;;4981018;28;20053;-50
2022/03/19 09:11:36;;;;;;;9.32;5.22;;;;;;;;;;4983843;28;20371;-49
2022/03/19 09:14:03;;;;;;;9.30;4.90;;;;;;;;;;4983917;28;20066;-50
2022/03/19 09:16:28;;;;;;;6.90;4.20;;;;;;;;;;4984102;28;20031;-50
2022/03/19 09:18:54;;;;;;;8.85;4.28;;;;;;;;;;4983714;28;20038;-50
2022/03/19 09:21:19;;;;;;;8.68;4.40;;;;;;;;;;4981133;28;20053;-52
2022/03/19 09:23:49;;;;;;;7.40;4.47;;;;;;;;;;4983148;28;20076;-51
2022/03/19 09:26:14;;;;;;;8.13;4.53;;;;;;;;;;4983466;28;20145;-50
2022/03/19 09:28:39;;;;;;;7.05;4.60;;;;;;;;;;4983435;28;20181;-50
2022/03/19 09:31:05;;;;;;;7.72;4.47;;;;;;;;;;4983289;28;20018;-50
2022/03/19 09:33:30;;;;;;;6.00;4.40;;;;;;;;;;4983357;28;20026;-51
2022/03/19 09:35:57;;;;;;;7.13;4.70;;;;;;;;;;4983414;28;20266;-51
2022/03/19 09:38:22;;;;;;;7.00;4.45;;;;;;;;;;4982713;28;20643;-51
2022/03/19 09:40:48;;;;;;;7.70;4.75;;;;;;;;;;4982158;28;20018;-50
2022/03/19 09:43:13;;;;;;;7.18;4.60;;;;;;;;;;4982303;28;20061;-50
2022/03/19 09:45:39;;;;;;;5.87;4.20;;;;;;;;;;4978631;28;20583;-50
2022/03/19 09:48:04;;;;;;;7.75;4.68;;;;;;;;;;4979612;28;20273;-51
2022/03/19 09:50:30;;;;;;;6.03;4.20;;;;;;;;;;5002245;28;20034;-50
2022/03/19 09:52:55;;;;;;;7.00;4.20;;;;;;;;;;5002869;28;20408;-51
2022/03/19 09:55:21;;;;;;;6.45;4.22;;;;;;;;;;4983965;28;20050;-50
2022/03/19 09:57:46;;;;;;;6.53;4.10;;;;;;;;;;4982998;28;20014;-50
2022/03/19 10:00:12;;;;;;;7.47;4.23;;;;;;;;;;4982781;28;20884;-50
2022/03/19 10:02:56;;;;;;;8.60;4.75;;;;;;;;;;4982981;28;20282;-51
2022/03/19 10:10:49;;;;;;;8.20;4.53;;;;;;;;;;4982225;28;20140;-50
2022/03/19 10:13:15;;;;;;;9.05;4.57;;;;;;;;;;4979712;28;20022;-50
2022/03/19 10:15:40;;;;;;;7.47;4.00;;;;;;;;;;4982013;28;20100;-50
2022/03/19 10:18:07;;;;;;;8.35;4.28;;;;;;;;;;4981440;28;20021;-50
2022/03/19 10:20:34;;;;;;;6.35;4.03;;;;;;;;;;4981284;28;20116;-50
2022/03/19 10:22:59;;;;;;;7.03;4.25;;;;;;;;;;4989889;28;20158;-50
2022/03/19 10:25:25;;;;;;;5.87;4.37;;;;;;;;;;4998486;28;20296;-50
2022/03/19 10:27:50;;;;;;;8.40;4.20;;;;;;;;;;4969426;28;20277;-51
2022/03/19 10:30:16;;;;;;;7.17;4.03;;;;;;;;;;4977578;28;20038;-49
2022/03/19 10:32:44;;;;;;;7.03;4.22;;;;;;;;;;4982196;28;20442;-51
2022/03/19 10:35:27;;;;;;;8.15;4.40;;;;;;;;;;4983963;28;20038;-51
2022/03/19 10:37:53;;;;;;;8.85;4.32;;;;;;;;;;4983884;28;20537;-50
2022/03/19 10:40:18;;;;;;;10.70;4.40;;;;;;;;;;4983977;28;20164;-50
2022/03/19 10:42:43;;;;;;;8.37;4.43;;;;;;;;;;4988360;28;20031;-50
2022/03/19 10:45:09;;;;;;;7.37;4.00;;;;;;;;;;4990888;28;20288;-51
2022/03/19 10:47:40;;;;;;;11.55;4.50;;;;;;;;;;4991926;28;20802;-50
2022/03/19 10:50:05;;;;;;;8.23;4.38;;;;;;;;;;4989533;28;20054;-50
2022/03/19 10:52:31;;;;;;;6.50;4.03;;;;;;;;;;4990107;28;20023;-50
2022/03/19 10:54:56;;;;;;;7.00;3.80;;;;;;;;;;4987956;28;20073;-51
2022/03/19 10:57:21;;;;;;;6.78;3.92;;;;;;;;;;4983370;28;20273;-50
2022/03/19 10:59:46;;;;;;;6.67;4.00;;;;;;;;;;4970806;28;21608;-50
2022/03/19 11:02:12;;;;;;;8.83;4.20;;;;;;;;;;4978499;28;21588;-51
2022/03/19 11:04:37;;;;;;;8.00;3.97;;;;;;;;;;4984455;28;20553;-50
2022/03/19 11:07:02;;;;;;;9.87;4.13;;;;;;;;;;4984757;28;20027;-51
2022/03/19 11:09:27;;;;;;;8.82;4.18;;;;;;;;;;4981078;28;20305;-50
2022/03/19 11:12:00;;;;;;;8.23;3.97;;;;;;;;;;4982940;28;20023;-50
2022/03/19 11:14:29;;;;;;;8.00;4.28;;;;;;;;;;4982945;28;20030;-51
2022/03/19 11:17:33;;;;;;;7.75;4.38;;;;;;;;;;4981705;28;20069;-51
2022/03/19 11:20:00;;;;;;;7.07;3.90;;;;;;;;;;4959958;28;20675;-50
2022/03/19 11:22:26;;;;;;;7.40;3.85;;;;;;;;;;4963779;28;20573;-53
2022/03/19 11:25:03;;;;;;;5.85;3.42;;;;;;;;;;4973142;28;20030;-51
2022/03/19 11:27:29;;;;;;;7.20;3.50;;;;;;;;;;4978529;28;20024;-50
2022/03/19 11:29:59;;;;;;;8.18;4.00;;;;;;;;;;4984162;28;20030;-50
2022/03/19 11:32:24;;;;;;;7.63;3.78;;;;;;;;;;4984839;28;20478;-50
2022/03/19 11:34:50;;;;;;;8.20;4.37;;;;;;;;;;4984449;28;20113;-50
2022/03/19 11:37:15;;;;;;;9.07;4.18;;;;;;;;;;4984058;28;20273;-51
2022/03/19 11:39:59;;;;;;;9.32;4.15;;;;;;;;;;4984482;28;20387;-50
2022/03/19 11:42:28;;;;;;;8.25;4.47;;;;;;;;;;4984811;28;20037;-50
2022/03/19 11:44:56;;;;;;;7.05;3.80;;;;;;;;;;4984725;28;20014;-50
2022/03/19 11:47:21;;;;;;;7.40;3.45;;;;;;;;;;4984370;28;20054;-49
2022/03/19 11:49:53;;;;;;;8.40;4.13;;;;;;;;;;4982873;28;20034;-50
2022/03/19 11:52:25;;;;;;;6.55;3.95;;;;;;;;;;4984270;28;20031;-50
2022/03/19 11:55:06;;;;;;;7.43;3.63;;;;;;;;;;4984544;28;20043;-49
2022/03/19 11:57:44;;;;;;;6.45;3.67;;;;;;;;;;4985037;28;20018;-49
2022/03/19 12:00:10;;;;;;;6.13;3.28;;;;;;;;;;4984831;28;20149;-49
2022/03/19 12:02:55;;;;;;;8.13;4.10;;;;;;;;;;4984020;28;20037;-49
2022/03/19 12:05:22;;;;;;;7.15;3.90;;;;;;;;;;4985117;28;20439;-49
2022/03/19 12:07:47;;;;;;;5.15;3.83;;;;;;;;;;4983806;28;20023;-50
2022/03/19 12:10:16;;;;;;;6.78;4.05;;;;;;;;;;4984808;28;20037;-49
2022/03/19 12:12:42;;;;;;;6.63;3.50;;;;;;;;;;4985211;28;20057;-49
2022/03/19 12:15:26;;;;;;;7.72;3.92;;;;;;;;;;4984971;28;20588;-50
2022/03/19 12:17:51;;;;;;;6.70;3.58;;;;;;;;;;4984371;28;20022;-49
2022/03/19 12:20:16;;;;;;;7.43;3.57;;;;;;;;;;4984568;28;20034;-49
2022/03/19 12:22:41;;;;;;;6.83;3.57;;;;;;;;;;4984659;28;20034;-49
2022/03/19 12:25:06;;;;;;;7.15;4.00;;;;;;;;;;4985117;28;20049;-49
2022/03/19 12:27:32;;;;;;;7.07;3.67;;;;;;;;;;4982203;28;20030;-49
2022/03/19 12:29:58;;;;;;;7.28;3.35;;;;;;;;;;5004278;28;20091;-50
2022/03/19 12:32:23;;;;;;;6.55;3.60;;;;;;;;;;5004280;28;20052;-49
2022/03/19 12:34:57;;;;;;;17.65;4.95;;;;;;;;;;4990535;28;20041;-50
2022/03/19 12:37:22;;;;;;;15.82;3.90;;;;;;;;;;4984358;28;20022;-50
2022/03/19 12:39:56;;;;;;;9.57;3.90;;;;;;;;;;4984755;28;20056;-49
2022/03/19 12:42:28;;;;;;;9.07;3.50;;;;;;;;;;4993044;28;20261;-50
2022/03/19 12:44:58;;;;;;;9.93;3.47;;;;;;;;;;5004154;28;20497;-50
2022/03/19 12:47:23;;;;;;;8.02;3.95;;;;;;;;;;4984187;28;20022;-50
2022/03/19 12:49:54;;;;;;;10.13;4.40;;;;;;;;;;4984326;28;20119;-50
2022/03/19 12:52:19;;;;;;;10.30;4.15;;;;;;;;;;4984281;28;20304;-50
2022/03/19 12:54:45;;;;;;;11.90;3.97;;;;;;;;;;4982584;28;20058;-50
2022/03/19 12:57:11;;;;;;;7.93;3.72;;;;;;;;;;4978463;28;20129;-50
2022/03/19 12:59:37;;;;;;;8.93;4.35;;;;;;;;;;4973935;28;20041;-51
2022/03/19 13:02:02;;;;;;;9.60;3.70;;;;;;;;;;4967373;28;20032;-50
2022/03/19 13:04:28;;;;;;;11.20;3.83;;;;;;;;;;4967168;28;20034;-50
2022/03/19 13:06:54;;;;;;;11.48;3.80;;;;;;;;;;4965572;28;20031;-50
2022/03/19 13:09:28;;;;;;;11.40;3.58;;;;;;;;;;4983239;28;20031;-51
2022/03/19 13:11:54;;;;;;;9.55;3.72;;;;;;;;;;4981581;28;20057;-51
2022/03/19 13:14:19;;;;;;;9.10;3.75;;;;;;;;;;4978245;28;20688;-50
2022/03/19 13:16:50;;;;;;;8.40;3.43;;;;;;;;;;4983949;28;20101;-50
2022/03/19 13:19:16;;;;;;;9.80;4.00;;;;;;;;;;4982576;28;20266;-50
2022/03/19 13:21:42;;;;;;;6.03;3.33;;;;;;;;;;4983055;28;20026;-50
2022/03/19 13:24:11;;;;;;;10.43;3.75;;;;;;;;;;4983657;28;20079;-50
2022/03/19 13:26:36;;;;;;;7.95;3.60;;;;;;;;;;4977649;28;20085;-50
2022/03/19 13:29:02;;;;;;;8.35;3.90;;;;;;;;;;4983487;28;20058;-50
2022/03/19 13:31:27;;;;;;;8.52;4.43;;;;;;;;;;4979389;28;20078;-50
2022/03/19 13:33:58;;;;;;;7.87;3.13;;;;;;;;;;4975256;28;20022;-50
2022/03/19 13:36:23;;;;;;;5.63;3.33;;;;;;;;;;4983609;28;20343;-50
2022/03/19 13:38:52;;;;;;;6.27;3.27;;;;;;;;;;4982488;28;20026;-50
2022/03/19 13:41:18;;;;;;;6.47;3.45;;;;;;;;;;4982673;28;20022;-51
2022/03/19 13:43:43;;;;;;;6.45;3.50;;;;;;;;;;4982175;28;20018;-51
2022/03/19 13:46:11;;;;;;;6.93;3.30;;;;;;;;;;4974460;28;20026;-51
2022/03/19 13:48:37;;;;;;;6.50;3.35;;;;;;;;;;4975263;28;20277;-51
2022/03/19 13:51:03;;;;;;;9.13;3.23;;;;;;;;;;4976125;28;20078;-50
2022/03/19 13:53:47;;;;;;;6.07;3.75;;;;;;;;;;4981513;28;20029;-51
2022/03/19 13:56:13;;;;;;;4.90;3.30;;;;;;;;;;4983395;28;20034;-48
2022/03/19 13:58:38;;;;;;;7.63;3.22;;;;;;;;;;4983475;28;20345;-51
2022/03/19 14:01:10;;;;;;;5.13;2.95;;;;;;;;;;4987842;28;20041;-52
2022/03/19 14:03:40;;;;;;;7.45;3.03;;;;;;;;;;4991478;28;20052;-51
2022/03/19 14:06:05;;;;;;;4.70;3.10;;;;;;;;;;4976394;28;20023;-50
2022/03/19 14:08:31;;;;;;;6.38;2.97;;;;;;;;;;4974860;28;20026;-51
2022/03/19 14:10:56;;;;;;;5.47;2.70;;;;;;;;;;4983298;28;20504;-52
2022/03/19 14:13:23;;;;;;;6.37;2.90;;;;;;;;;;4982870;28;20093;-51
2022/03/19 14:15:51;;;;;;;5.07;3.20;;;;;;;;;;4983077;28;20269;-51
2022/03/19 14:18:28;;;;;;;5.95;3.10;;;;;;;;;;4983112;28;20033;-51
2022/03/19 14:20:54;;;;;;;5.97;2.95;;;;;;;;;;4982678;28;20490;-51
2022/03/19 14:23:20;;;;;;;4.40;2.75;;;;;;;;;;4981302;28;20061;-51
2022/03/19 14:25:45;;;;;;;6.88;3.38;;;;;;;;;;4978405;28;20114;-51
2022/03/19 14:28:15;;;;;;;5.05;3.10;;;;;;;;;;4990108;28;20028;-52
2022/03/19 14:30:40;;;;;;;4.80;3.10;;;;;;;;;;5002788;28;20457;-51
2022/03/19 14:33:06;;;;;;;5.30;3.38;;;;;;;;;;4987484;28;20274;-51
2022/03/19 14:35:37;;;;;;;4.93;2.80;;;;;;;;;;4984559;28;20030;-51
2022/03/19 14:38:02;;;;;;;4.95;3.17;;;;;;;;;;4984300;28;20542;-51
2022/03/19 14:40:27;;;;;;;4.93;2.80;;;;;;;;;;4982124;28;20145;-51
2022/03/19 14:42:53;;;;;;;5.53;2.80;;;;;;;;;;4982022;28;20776;-50
2022/03/19 14:45:21;;;;;;;5.47;2.70;;;;;;;;;;4975298;28;20495;-51
2022/03/19 14:47:47;;;;;;;6.32;3.08;;;;;;;;;;4967367;28;20025;-51
2022/03/19 14:50:12;;;;;;;5.22;3.33;;;;;;;;;;4973073;28;20384;-50
2022/03/19 14:52:37;;;;;;;5.53;2.97;;;;;;;;;;4982919;28;20109;-51
2022/03/19 14:55:03;;;;;;;4.30;2.87;;;;;;;;;;4982708;28;20054;-50
2022/03/19 14:57:28;;;;;;;5.25;3.03;;;;;;;;;;4996163;28;20158;-51
2022/03/19 14:59:53;;;;;;;3.67;2.67;;;;;;;;;;4973590;28;20030;-51